sensor_id;sensor_type;location;lat;lon;timestamp;temperature;humidity
12223;DHT22;6174;49.058;8.524;2024-01-11T06:00:47;-4.70;99.90
12223;DHT22;6174;49.058;8.524;2024-01-11T06:03:13;-4.70;99.90
12223;DHT22;6174;49.058;8.524;2024-01-11T06:05:40;-4.80;99.90
12223;DHT22;6174;49.058;8.524;2024-01-11T06:08:07;-4.70;99.90
12223;DHT22;6174;49.058;8.524;2024-01-11T06:10:34;-4.60;99.90
12223;DHT22;6174;49.058;8.524;2024-01-11T06:13:01;-4.50;99.90
12223;DHT22;6174;49.058;8.524;2024-01-11T07:09:44;-4.70;99.90
12223;DHT22;6174;49.058;8.524;2024-01-11T07:12:11;-4.50;99.90
12223;DHT22;6174;49.058;8.524;2024-01-11T07:14:37;-4.60;99.90
12223;DHT22;6174;49.058;8.524;2024-01-11T07:17:04;-4.80;99.90
12223;DHT22;6174;49.058;8.524;2024-01-11T07:19:31;-4.60;99.90
12223;DHT22;6174;49.058;8.524;2024-01-11T07:21:58;-4.70;99.90
12223;DHT22;6174;49.058;8.524;2024-01-11T07:24:24;-4.60;99.90
12223;DHT22;6174;49.058;8.524;2024-01-11T07:26:54;-4.60;99.90
12223;DHT22;6174;49.058;8.524;2024-01-11T07:29:21;-4.80;99.90
12223;DHT22;6174;49.058;8.524;2024-01-11T07:31:48;-4.70;99.90
12223;DHT22;6174;49.058;8.524;2024-01-11T07:34:16;-4.70;99.90
12223;DHT22;6174;49.058;8.524;2024-01-11T07:36:43;-4.70;99.90
12223;DHT22;6174;49.058;8.524;2024-01-11T07:39:09;-4.80;99.90
12223;DHT22;6174;49.058;8.524;2024-01-11T07:41:36;-4.80;99.90
12223;DHT22;6174;49.058;8.524;2024-01-11T07:44:04;-4.70;99.90
12223;DHT22;6174;49.058;8.524;2024-01-11T07:46:31;-4.70;99.90
12223;DHT22;6174;49.058;8.524;2024-01-11T07:48:58;-4.70;99.90
12223;DHT22;6174;49.058;8.524;2024-01-11T07:51:25;-4.60;99.90
12223;DHT22;6174;49.058;8.524;2024-01-11T07:53:52;-4.50;99.90
12223;DHT22;6174;49.058;8.524;2024-01-11T07:56:19;-4.40;99.90
12223;DHT22;6174;49.058;8.524;2024-01-11T07:58:45;-4.30;99.90
12223;DHT22;6174;49.058;8.524;2024-01-11T08:01:15;-4.20;99.90
12223;DHT22;6174;49.058;8.524;2024-01-11T08:03:42;-4.00;99.90
12223;DHT22;6174;49.058;8.524;2024-01-11T08:06:10;-4.20;99.90
12223;DHT22;6174;49.058;8.524;2024-01-11T08:08:37;-4.10;99.90
12223;DHT22;6174;49.058;8.524;2024-01-11T08:11:04;-4.10;99.90
12223;DHT22;6174;49.058;8.524;2024-01-11T08:13:31;-4.10;99.90
12223;DHT22;6174;49.058;8.524;2024-01-11T08:16:00;-4.10;99.90
12223;DHT22;6174;49.058;8.524;2024-01-11T08:18:28;-4.00;99.90
12223;DHT22;6174;49.058;8.524;2024-01-11T08:20:55;-3.80;99.90
12223;DHT22;6174;49.058;8.524;2024-01-11T08:23:22;-3.70;99.90
12223;DHT22;6174;49.058;8.524;2024-01-11T08:25:49;-3.70;99.90
12223;DHT22;6174;49.058;8.524;2024-01-11T08:28:18;-3.90;99.90
12223;DHT22;6174;49.058;8.524;2024-01-11T08:30:48;-3.90;99.90
12223;DHT22;6174;49.058;8.524;2024-01-11T08:33:15;-3.80;99.90
12223;DHT22;6174;49.058;8.524;2024-01-11T08:35:43;-3.70;99.90
12223;DHT22;6174;49.058;8.524;2024-01-11T08:38:10;-3.70;99.90
12223;DHT22;6174;49.058;8.524;2024-01-11T08:40:37;-3.50;99.90
12223;DHT22;6174;49.058;8.524;2024-01-11T08:43:04;-3.50;99.90
12223;DHT22;6174;49.058;8.524;2024-01-11T08:45:32;-3.50;99.90
12223;DHT22;6174;49.058;8.524;2024-01-11T08:47:58;-3.40;99.90
12223;DHT22;6174;49.058;8.524;2024-01-11T08:50:26;-3.30;99.90
12223;DHT22;6174;49.058;8.524;2024-01-11T08:52:54;-3.30;99.90
12223;DHT22;6174;49.058;8.524;2024-01-11T08:55:21;-3.10;99.90
12223;DHT22;6174;49.058;8.524;2024-01-11T08:57:48;-3.00;99.90
12223;DHT22;6174;49.058;8.524;2024-01-11T09:00:15;-2.90;99.90
12223;DHT22;6174;49.058;8.524;2024-01-11T09:02:43;-2.80;99.90
12223;DHT22;6174;49.058;8.524;2024-01-11T09:05:10;-2.80;99.90
12223;DHT22;6174;49.058;8.524;2024-01-11T09:07:36;-2.90;99.90
12223;DHT22;6174;49.058;8.524;2024-01-11T09:10:06;-2.90;99.90
12223;DHT22;6174;49.058;8.524;2024-01-11T09:12:34;-2.90;99.90
12223;DHT22;6174;49.058;8.524;2024-01-11T09:15:00;-2.70;99.90
12223;DHT22;6174;49.058;8.524;2024-01-11T09:17:27;-2.70;99.90
12223;DHT22;6174;49.058;8.524;2024-01-11T09:19:54;-2.70;99.90
12223;DHT22;6174;49.058;8.524;2024-01-11T09:22:21;-2.70;99.90
12223;DHT22;6174;49.058;8.524;2024-01-11T09:24:48;-2.70;99.90
12223;DHT22;6174;49.058;8.524;2024-01-11T09:27:16;-2.50;99.90
12223;DHT22;6174;49.058;8.524;2024-01-11T09:29:43;-2.40;99.90
12223;DHT22;6174;49.058;8.524;2024-01-11T09:32:10;-2.30;99.90
12223;DHT22;6174;49.058;8.524;2024-01-11T09:34:37;-2.20;99.90
12223;DHT22;6174;49.058;8.524;2024-01-11T09:37:04;-2.20;99.90
12223;DHT22;6174;49.058;8.524;2024-01-11T09:39:31;-2.00;99.90
12223;DHT22;6174;49.058;8.524;2024-01-11T09:42:05;-2.00;99.90
12223;DHT22;6174;49.058;8.524;2024-01-11T09:44:34;-2.00;99.90
12223;DHT22;6174;49.058;8.524;2024-01-11T09:47:02;-1.80;99.90
12223;DHT22;6174;49.058;8.524;2024-01-11T09:49:30;-1.90;99.90
12223;DHT22;6174;49.058;8.524;2024-01-11T09:51:58;-1.80;99.90
12223;DHT22;6174;49.058;8.524;2024-01-11T09:54:27;-1.70;99.90
12223;DHT22;6174;49.058;8.524;2024-01-11T09:56:54;-1.60;99.90
12223;DHT22;6174;49.058;8.524;2024-01-11T09:59:24;-1.50;99.90
12223;DHT22;6174;49.058;8.524;2024-01-11T10:01:52;-1.50;99.90
12223;DHT22;6174;49.058;8.524;2024-01-11T10:04:20;-1.40;99.90
12223;DHT22;6174;49.058;8.524;2024-01-11T10:06:49;-1.20;99.90
12223;DHT22;6174;49.058;8.524;2024-01-11T10:09:17;-1.10;99.90
12223;DHT22;6174;49.058;8.524;2024-01-11T10:11:44;-1.20;99.90
12223;DHT22;6174;49.058;8.524;2024-01-11T10:14:12;-1.10;99.90
12223;DHT22;6174;49.058;8.524;2024-01-11T10:16:39;-1.10;99.90
12223;DHT22;6174;49.058;8.524;2024-01-11T10:19:09;-1.10;99.90
12223;DHT22;6174;49.058;8.524;2024-01-11T10:21:38;-1.20;99.90
12223;DHT22;6174;49.058;8.524;2024-01-11T10:24:08;-1.20;99.90
12223;DHT22;6174;49.058;8.524;2024-01-11T10:26:36;-1.10;99.90
12223;DHT22;6174;49.058;8.524;2024-01-11T10:29:02;-1.00;99.90
12223;DHT22;6174;49.058;8.524;2024-01-11T10:31:36;-0.90;99.90
12223;DHT22;6174;49.058;8.524;2024-01-11T10:34:04;-0.80;99.90
12223;DHT22;6174;49.058;8.524;2024-01-11T10:36:32;-0.80;99.90
12223;DHT22;6174;49.058;8.524;2024-01-11T10:39:02;-0.80;99.90
12223;DHT22;6174;49.058;8.524;2024-01-11T10:41:32;-0.70;99.90
12223;DHT22;6174;49.058;8.524;2024-01-11T10:44:02;-0.40;99.90
12223;DHT22;6174;49.058;8.524;2024-01-11T10:46:31;-0.20;99.90
12223;DHT22;6174;49.058;8.524;2024-01-11T10:48:59;0.00;99.90
12223;DHT22;6174;49.058;8.524;2024-01-11T10:51:33;0.10;99.90
12223;DHT22;6174;49.058;8.524;2024-01-11T10:54:00;0.10;99.90
12223;DHT22;6174;49.058;8.524;2024-01-11T10:56:28;0.10;99.90
12223;DHT22;6174;49.058;8.524;2024-01-11T10:58:56;0.10;99.90
12223;DHT22;6174;49.058;8.524;2024-01-11T11:01:24;0.20;99.90
12223;DHT22;6174;49.058;8.524;2024-01-11T11:03:52;0.20;99.90
12223;DHT22;6174;49.058;8.524;2024-01-11T11:06:22;0.30;99.90
12223;DHT22;6174;49.058;8.524;2024-01-11T11:08:51;0.30;99.90
12223;DHT22;6174;49.058;8.524;2024-01-11T11:11:19;0.50;99.90
12223;DHT22;6174;49.058;8.524;2024-01-11T11:13:47;0.60;99.90
12223;DHT22;6174;49.058;8.524;2024-01-11T11:16:14;0.70;99.90
12223;DHT22;6174;49.058;8.524;2024-01-11T11:18:41;0.90;99.90
12223;DHT22;6174;49.058;8.524;2024-01-11T11:21:09;1.00;99.90
12223;DHT22;6174;49.058;8.524;2024-01-11T11:23:37;1.10;99.90
12223;DHT22;6174;49.058;8.524;2024-01-11T11:26:06;1.30;99.90
12223;DHT22;6174;49.058;8.524;2024-01-11T11:28:33;1.20;99.90
12223;DHT22;6174;49.058;8.524;2024-01-11T11:31:02;1.30;99.90
12223;DHT22;6174;49.058;8.524;2024-01-11T11:33:30;1.50;99.90
12223;DHT22;6174;49.058;8.524;2024-01-11T11:35:58;1.70;99.90
12223;DHT22;6174;49.058;8.524;2024-01-11T11:38:26;1.70;99.90
12223;DHT22;6174;49.058;8.524;2024-01-11T11:40:55;1.90;99.90
12223;DHT22;6174;49.058;8.524;2024-01-11T11:43:25;1.80;99.90
12223;DHT22;6174;49.058;8.524;2024-01-11T11:45:52;1.90;99.90
12223;DHT22;6174;49.058;8.524;2024-01-11T11:48:47;1.90;99.90
12223;DHT22;6174;49.058;8.524;2024-01-11T11:51:15;2.10;99.90
12223;DHT22;6174;49.058;8.524;2024-01-11T11:53:43;2.10;99.90
12223;DHT22;6174;49.058;8.524;2024-01-11T11:56:10;2.20;99.90
12223;DHT22;6174;49.058;8.524;2024-01-11T11:58:39;2.40;99.90
12223;DHT22;6174;49.058;8.524;2024-01-11T12:01:06;2.50;99.90
12223;DHT22;6174;49.058;8.524;2024-01-11T12:03:35;2.50;99.90
12223;DHT22;6174;49.058;8.524;2024-01-11T12:06:05;2.50;99.90
12223;DHT22;6174;49.058;8.524;2024-01-11T12:08:32;2.60;99.80
12223;DHT22;6174;49.058;8.524;2024-01-11T12:10:59;2.50;99.40
12223;DHT22;6174;49.058;8.524;2024-01-11T12:13:26;2.60;99.50
12223;DHT22;6174;49.058;8.524;2024-01-11T12:15:55;2.40;99.20
12223;DHT22;6174;49.058;8.524;2024-01-11T12:18:21;2.40;98.80
12223;DHT22;6174;49.058;8.524;2024-01-11T12:20:48;2.20;98.90
12223;DHT22;6174;49.058;8.524;2024-01-11T12:23:16;2.00;99.10
12223;DHT22;6174;49.058;8.524;2024-01-11T12:25:43;2.10;99.20
12223;DHT22;6174;49.058;8.524;2024-01-11T12:28:10;2.20;99.20
12223;DHT22;6174;49.058;8.524;2024-01-11T12:30:38;2.50;99.30
12223;DHT22;6174;49.058;8.524;2024-01-11T12:33:06;2.50;98.70
12223;DHT22;6174;49.058;8.524;2024-01-11T12:35:34;2.70;98.70
12223;DHT22;6174;49.058;8.524;2024-01-11T12:38:03;2.70;97.90
12223;DHT22;6174;49.058;8.524;2024-01-11T12:40:32;2.40;97.80
12223;DHT22;6174;49.058;8.524;2024-01-11T12:42:59;2.30;98.10
12223;DHT22;6174;49.058;8.524;2024-01-11T12:45:26;2.40;98.40
12223;DHT22;6174;49.058;8.524;2024-01-11T12:47:54;2.50;98.00
12223;DHT22;6174;49.058;8.524;2024-01-11T12:50:23;2.40;97.90
12223;DHT22;6174;49.058;8.524;2024-01-11T12:53:05;2.50;97.90
12223;DHT22;6174;49.058;8.524;2024-01-11T12:55:31;2.70;98.10
12223;DHT22;6174;49.058;8.524;2024-01-11T12:58:04;2.80;97.80
12223;DHT22;6174;49.058;8.524;2024-01-11T13:00:30;2.90;97.30
12223;DHT22;6174;49.058;8.524;2024-01-11T13:02:58;2.80;97.10
12223;DHT22;6174;49.058;8.524;2024-01-11T13:05:26;2.80;97.50
12223;DHT22;6174;49.058;8.524;2024-01-11T13:07:53;2.90;97.30
12223;DHT22;6174;49.058;8.524;2024-01-11T13:10:20;2.70;96.90
12223;DHT22;6174;49.058;8.524;2024-01-11T13:12:49;2.70;97.30
12223;DHT22;6174;49.058;8.524;2024-01-11T13:15:16;2.70;97.40
12223;DHT22;6174;49.058;8.524;2024-01-11T13:17:43;2.80;97.10
12223;DHT22;6174;49.058;8.524;2024-01-11T13:20:10;3.00;97.40
12223;DHT22;6174;49.058;8.524;2024-01-11T13:22:38;3.10;97.30
12223;DHT22;6174;49.058;8.524;2024-01-11T13:25:06;3.40;97.60
12223;DHT22;6174;49.058;8.524;2024-01-11T13:27:33;3.70;97.40
12223;DHT22;6174;49.058;8.524;2024-01-11T13:29:59;3.80;97.00
12223;DHT22;6174;49.058;8.524;2024-01-11T13:32:26;4.10;96.60
12223;DHT22;6174;49.058;8.524;2024-01-11T13:34:53;4.20;96.00
12223;DHT22;6174;49.058;8.524;2024-01-11T13:37:20;4.30;96.10
12223;DHT22;6174;49.058;8.524;2024-01-11T13:39:48;4.40;95.80
12223;DHT22;6174;49.058;8.524;2024-01-11T13:42:15;4.30;95.60
12223;DHT22;6174;49.058;8.524;2024-01-11T13:44:41;4.50;95.60
12223;DHT22;6174;49.058;8.524;2024-01-11T13:47:08;4.70;95.30
12223;DHT22;6174;49.058;8.524;2024-01-11T13:49:35;4.80;95.00
12223;DHT22;6174;49.058;8.524;2024-01-11T13:52:02;4.90;94.80
12223;DHT22;6174;49.058;8.524;2024-01-11T13:54:30;4.80;94.40
12223;DHT22;6174;49.058;8.524;2024-01-11T13:56:58;4.50;94.30
12223;DHT22;6174;49.058;8.524;2024-01-11T13:59:25;4.70;94.60
12223;DHT22;6174;49.058;8.524;2024-01-11T14:01:51;4.80;94.70
12223;DHT22;6174;49.058;8.524;2024-01-11T14:04:18;4.70;94.50
12223;DHT22;6174;49.058;8.524;2024-01-11T14:06:48;4.80;94.70
12223;DHT22;6174;49.058;8.524;2024-01-11T14:09:16;4.70;94.30
12223;DHT22;6174;49.058;8.524;2024-01-11T14:11:43;4.90;94.60
12223;DHT22;6174;49.058;8.524;2024-01-11T14:14:11;4.60;94.10
12223;DHT22;6174;49.058;8.524;2024-01-11T14:16:38;4.50;94.10
12223;DHT22;6174;49.058;8.524;2024-01-11T14:19:05;4.50;94.20
12223;DHT22;6174;49.058;8.524;2024-01-11T14:21:32;4.10;94.40
12223;DHT22;6174;49.058;8.524;2024-01-11T14:23:58;4.00;94.70
12223;DHT22;6174;49.058;8.524;2024-01-11T14:26:25;4.00;94.90
12223;DHT22;6174;49.058;8.524;2024-01-11T14:28:52;3.90;94.90
12223;DHT22;6174;49.058;8.524;2024-01-11T14:31:21;3.60;95.40
12223;DHT22;6174;49.058;8.524;2024-01-11T14:33:48;3.50;95.60
12223;DHT22;6174;49.058;8.524;2024-01-11T14:36:14;3.40;95.70
12223;DHT22;6174;49.058;8.524;2024-01-11T14:38:42;3.20;95.90
12223;DHT22;6174;49.058;8.524;2024-01-11T14:41:09;3.00;96.10
12223;DHT22;6174;49.058;8.524;2024-01-11T14:43:36;2.80;96.40
12223;DHT22;6174;49.058;8.524;2024-01-11T14:46:03;2.80;96.80
12223;DHT22;6174;49.058;8.524;2024-01-11T14:48:32;2.70;96.90
12223;DHT22;6174;49.058;8.524;2024-01-11T14:50:58;2.60;96.90
12223;DHT22;6174;49.058;8.524;2024-01-11T14:53:25;2.60;97.00
12223;DHT22;6174;49.058;8.524;2024-01-11T14:55:52;2.40;97.30
12223;DHT22;6174;49.058;8.524;2024-01-11T14:58:19;2.30;97.70
12223;DHT22;6174;49.058;8.524;2024-01-11T15:00:46;2.30;97.80
12223;DHT22;6174;49.058;8.524;2024-01-11T15:03:13;2.30;97.90
12223;DHT22;6174;49.058;8.524;2024-01-11T15:05:41;2.10;98.30
12223;DHT22;6174;49.058;8.524;2024-01-11T15:08:08;2.20;98.30
12223;DHT22;6174;49.058;8.524;2024-01-11T15:10:35;2.20;98.40
12223;DHT22;6174;49.058;8.524;2024-01-11T15:13:02;2.20;98.50
12223;DHT22;6174;49.058;8.524;2024-01-11T15:15:29;2.10;98.30
12223;DHT22;6174;49.058;8.524;2024-01-11T15:17:56;2.00;98.60
12223;DHT22;6174;49.058;8.524;2024-01-11T15:20:22;2.10;98.70
12223;DHT22;6174;49.058;8.524;2024-01-11T15:22:50;1.90;98.70
12223;DHT22;6174;49.058;8.524;2024-01-11T15:25:17;2.00;98.80
12223;DHT22;6174;49.058;8.524;2024-01-11T15:27:44;1.90;98.90
12223;DHT22;6174;49.058;8.524;2024-01-11T15:30:11;1.80;99.10
12223;DHT22;6174;49.058;8.524;2024-01-11T15:32:38;1.70;99.20
12223;DHT22;6174;49.058;8.524;2024-01-11T15:35:06;1.50;99.40
12223;DHT22;6174;49.058;8.524;2024-01-11T15:37:33;1.30;99.90
12223;DHT22;6174;49.058;8.524;2024-01-11T15:40:02;1.20;99.90
12223;DHT22;6174;49.058;8.524;2024-01-11T15:42:30;0.90;99.90
12223;DHT22;6174;49.058;8.524;2024-01-11T15:44:57;0.70;99.90
12223;DHT22;6174;49.058;8.524;2024-01-11T15:47:24;0.60;99.90
12223;DHT22;6174;49.058;8.524;2024-01-11T15:49:51;0.50;99.90
12223;DHT22;6174;49.058;8.524;2024-01-11T15:52:17;0.60;99.90
12223;DHT22;6174;49.058;8.524;2024-01-11T15:54:45;0.50;99.90
12223;DHT22;6174;49.058;8.524;2024-01-11T15:57:14;0.50;99.90
12223;DHT22;6174;49.058;8.524;2024-01-11T15:59:40;0.40;99.90
12223;DHT22;6174;49.058;8.524;2024-01-11T16:02:07;0.30;99.90
12223;DHT22;6174;49.058;8.524;2024-01-11T16:04:37;0.20;99.90
12223;DHT22;6174;49.058;8.524;2024-01-11T16:07:04;0.10;99.90
12223;DHT22;6174;49.058;8.524;2024-01-11T16:09:31;0.10;99.90
12223;DHT22;6174;49.058;8.524;2024-01-11T16:11:58;0.30;99.90
12223;DHT22;6174;49.058;8.524;2024-01-11T16:14:26;0.30;99.90
12223;DHT22;6174;49.058;8.524;2024-01-11T16:16:53;0.40;99.90
12223;DHT22;6174;49.058;8.524;2024-01-11T16:19:20;0.40;99.90
12223;DHT22;6174;49.058;8.524;2024-01-11T18:16:31;-0.60;99.90
12223;DHT22;6174;49.058;8.524;2024-01-11T18:18:58;-0.70;99.90
12223;DHT22;6174;49.058;8.524;2024-01-11T18:21:25;-0.30;99.90
12223;DHT22;6174;49.058;8.524;2024-01-11T18:23:54;-0.60;99.90
12223;DHT22;6174;49.058;8.524;2024-01-11T18:26:21;-1.20;99.90
12223;DHT22;6174;49.058;8.524;2024-01-11T18:28:49;-1.40;99.90
12223;DHT22;6174;49.058;8.524;2024-01-11T18:31:16;-1.40;99.90
12223;DHT22;6174;49.058;8.524;2024-01-11T18:33:45;-1.30;99.90
12223;DHT22;6174;49.058;8.524;2024-01-11T18:36:12;-1.50;99.90
12223;DHT22;6174;49.058;8.524;2024-01-11T18:38:41;-1.10;99.90
12223;DHT22;6174;49.058;8.524;2024-01-11T18:41:08;-1.40;99.90
12223;DHT22;6174;49.058;8.524;2024-01-11T18:43:35;-1.20;99.90
12223;DHT22;6174;49.058;8.524;2024-01-11T18:46:02;-1.20;99.90
12223;DHT22;6174;49.058;8.524;2024-01-11T18:48:29;-1.10;99.90
12223;DHT22;6174;49.058;8.524;2024-01-11T18:50:57;-0.50;99.90
12223;DHT22;6174;49.058;8.524;2024-01-11T18:53:25;-1.30;99.90
12223;DHT22;6174;49.058;8.524;2024-01-11T18:55:52;-1.60;99.90
12223;DHT22;6174;49.058;8.524;2024-01-11T18:58:22;-1.70;99.90
12223;DHT22;6174;49.058;8.524;2024-01-11T19:00:49;-0.30;99.90
12223;DHT22;6174;49.058;8.524;2024-01-11T19:03:16;-1.70;99.90
12223;DHT22;6174;49.058;8.524;2024-01-11T19:05:42;-1.50;99.90
12223;DHT22;6174;49.058;8.524;2024-01-11T19:08:11;-1.50;99.90
12223;DHT22;6174;49.058;8.524;2024-01-11T19:10:37;-1.40;99.90
12223;DHT22;6174;49.058;8.524;2024-01-11T19:13:04;-1.30;99.90
12223;DHT22;6174;49.058;8.524;2024-01-11T19:15:32;-1.40;99.90
12223;DHT22;6174;49.058;8.524;2024-01-11T19:18:00;-1.40;99.90
12223;DHT22;6174;49.058;8.524;2024-01-11T19:20:26;-1.30;99.90
12223;DHT22;6174;49.058;8.524;2024-01-11T19:22:53;-1.20;99.90
12223;DHT22;6174;49.058;8.524;2024-01-11T19:25:23;-0.70;99.90
12223;DHT22;6174;49.058;8.524;2024-01-11T19:27:50;-0.80;99.90
12223;DHT22;6174;49.058;8.524;2024-01-11T19:30:22;-1.30;99.90
12223;DHT22;6174;49.058;8.524;2024-01-11T19:32:51;-1.50;99.90
12223;DHT22;6174;49.058;8.524;2024-01-11T19:35:18;-1.20;99.90
12223;DHT22;6174;49.058;8.524;2024-01-11T19:37:45;-1.60;99.90
12223;DHT22;6174;49.058;8.524;2024-01-11T19:40:13;-1.30;99.90
12223;DHT22;6174;49.058;8.524;2024-01-11T19:42:41;-1.70;99.90
12223;DHT22;6174;49.058;8.524;2024-01-11T19:45:09;-1.30;99.90
12223;DHT22;6174;49.058;8.524;2024-01-11T19:47:36;-1.70;99.90
12223;DHT22;6174;49.058;8.524;2024-01-11T19:50:04;-0.60;99.90
12223;DHT22;6174;49.058;8.524;2024-01-11T19:52:31;-1.50;99.90
12223;DHT22;6174;49.058;8.524;2024-01-11T19:54:58;-1.40;99.90
12223;DHT22;6174;49.058;8.524;2024-01-11T19:57:24;-1.40;99.90
12223;DHT22;6174;49.058;8.524;2024-01-11T19:59:52;-2.10;99.90
12223;DHT22;6174;49.058;8.524;2024-01-11T20:02:19;-2.20;99.90
12223;DHT22;6174;49.058;8.524;2024-01-11T20:04:46;-1.70;99.90
12223;DHT22;6174;49.058;8.524;2024-01-11T20:07:16;-1.30;99.90
12223;DHT22;6174;49.058;8.524;2024-01-11T20:09:44;-2.30;99.90
12223;DHT22;6174;49.058;8.524;2024-01-11T20:12:11;-1.90;99.90
12223;DHT22;6174;49.058;8.524;2024-01-11T20:14:38;-2.30;99.90
12223;DHT22;6174;49.058;8.524;2024-01-11T20:17:06;-1.60;99.90
12223;DHT22;6174;49.058;8.524;2024-01-11T20:19:33;-2.00;99.90
12223;DHT22;6174;49.058;8.524;2024-01-11T20:22:00;-2.00;99.90
12223;DHT22;6174;49.058;8.524;2024-01-11T20:24:27;-0.90;99.90
12223;DHT22;6174;49.058;8.524;2024-01-11T20:26:54;-0.80;99.90
12223;DHT22;6174;49.058;8.524;2024-01-11T20:29:21;-2.30;99.90
12223;DHT22;6174;49.058;8.524;2024-01-11T20:31:48;-0.90;99.90
12223;DHT22;6174;49.058;8.524;2024-01-11T20:34:16;-0.90;99.90
12223;DHT22;6174;49.058;8.524;2024-01-11T20:36:43;-1.90;99.90
12223;DHT22;6174;49.058;8.524;2024-01-11T20:39:10;-1.80;99.90
12223;DHT22;6174;49.058;8.524;2024-01-11T20:41:37;-1.80;99.90
12223;DHT22;6174;49.058;8.524;2024-01-11T20:44:08;-1.90;99.90
12223;DHT22;6174;49.058;8.524;2024-01-11T20:46:35;-1.90;99.90
12223;DHT22;6174;49.058;8.524;2024-01-11T20:49:02;-1.90;99.90
12223;DHT22;6174;49.058;8.524;2024-01-11T20:51:33;-1.60;99.90
12223;DHT22;6174;49.058;8.524;2024-01-11T20:54:00;-1.60;99.90
12223;DHT22;6174;49.058;8.524;2024-01-11T20:56:27;-2.20;99.90
12223;DHT22;6174;49.058;8.524;2024-01-11T20:58:57;-2.20;99.90
12223;DHT22;6174;49.058;8.524;2024-01-11T21:01:24;-2.20;99.90
12223;DHT22;6174;49.058;8.524;2024-01-11T21:03:51;-2.20;99.90
12223;DHT22;6174;49.058;8.524;2024-01-11T21:06:21;-2.00;99.90
12223;DHT22;6174;49.058;8.524;2024-01-11T21:08:49;-2.30;99.90
12223;DHT22;6174;49.058;8.524;2024-01-11T21:11:16;-1.90;99.90
12223;DHT22;6174;49.058;8.524;2024-01-11T21:13:46;-1.60;99.90
12223;DHT22;6174;49.058;8.524;2024-01-11T21:16:13;-2.10;99.90
12223;DHT22;6174;49.058;8.524;2024-01-11T21:18:40;-1.30;99.90
12223;DHT22;6174;49.058;8.524;2024-01-11T21:21:07;-2.10;99.90
12223;DHT22;6174;49.058;8.524;2024-01-11T21:23:35;-2.20;99.90
12223;DHT22;6174;49.058;8.524;2024-01-11T21:26:03;-2.30;99.90
12223;DHT22;6174;49.058;8.524;2024-01-11T21:28:30;-2.20;99.90
12223;DHT22;6174;49.058;8.524;2024-01-11T21:30:57;-2.00;99.90
12223;DHT22;6174;49.058;8.524;2024-01-11T21:33:24;-2.00;99.90
12223;DHT22;6174;49.058;8.524;2024-01-11T21:35:51;-2.20;99.90
12223;DHT22;6174;49.058;8.524;2024-01-11T21:38:19;-2.20;99.90
12223;DHT22;6174;49.058;8.524;2024-01-11T21:40:46;-2.20;99.90
12223;DHT22;6174;49.058;8.524;2024-01-11T21:43:14;-2.30;99.90
12223;DHT22;6174;49.058;8.524;2024-01-11T21:45:44;-1.90;99.90
12223;DHT22;6174;49.058;8.524;2024-01-11T21:48:10;-2.40;99.90
12223;DHT22;6174;49.058;8.524;2024-01-11T21:50:37;-2.40;99.90
12223;DHT22;6174;49.058;8.524;2024-01-11T21:53:04;-2.50;99.90
12223;DHT22;6174;49.058;8.524;2024-01-11T21:55:31;-2.60;99.90
12223;DHT22;6174;49.058;8.524;2024-01-11T21:57:58;-2.60;99.90
12223;DHT22;6174;49.058;8.524;2024-01-11T22:00:26;-2.70;99.90
12223;DHT22;6174;49.058;8.524;2024-01-11T22:02:53;-2.80;99.90
12223;DHT22;6174;49.058;8.524;2024-01-11T22:05:20;-2.80;99.90
12223;DHT22;6174;49.058;8.524;2024-01-11T22:07:46;-2.70;99.90
12223;DHT22;6174;49.058;8.524;2024-01-11T22:10:12;-2.70;99.90
12223;DHT22;6174;49.058;8.524;2024-01-11T22:12:40;-2.80;99.90
12223;DHT22;6174;49.058;8.524;2024-01-11T22:15:07;-2.70;99.90
12223;DHT22;6174;49.058;8.524;2024-01-11T22:17:37;-2.80;99.90
12223;DHT22;6174;49.058;8.524;2024-01-11T22:20:04;-1.50;99.90
12223;DHT22;6174;49.058;8.524;2024-01-11T22:22:31;-2.70;99.90
12223;DHT22;6174;49.058;8.524;2024-01-11T22:24:58;-2.70;99.90
12223;DHT22;6174;49.058;8.524;2024-01-11T22:27:25;-2.10;99.90
12223;DHT22;6174;49.058;8.524;2024-01-11T22:29:53;-2.90;99.90
12223;DHT22;6174;49.058;8.524;2024-01-11T22:32:19;-3.10;99.90
12223;DHT22;6174;49.058;8.524;2024-01-11T22:34:47;-3.10;99.90
12223;DHT22;6174;49.058;8.524;2024-01-11T22:37:14;-2.90;99.90
12223;DHT22;6174;49.058;8.524;2024-01-11T22:39:41;-2.70;99.90
12223;DHT22;6174;49.058;8.524;2024-01-11T22:42:08;-2.70;99.90
12223;DHT22;6174;49.058;8.524;2024-01-11T22:44:35;-2.80;99.90
12223;DHT22;6174;49.058;8.524;2024-01-11T22:47:02;-2.90;99.90
12223;DHT22;6174;49.058;8.524;2024-01-11T22:49:28;-2.80;99.90
12223;DHT22;6174;49.058;8.524;2024-01-11T22:51:57;-2.90;99.90
12223;DHT22;6174;49.058;8.524;2024-01-11T22:54:23;-3.00;99.90
12223;DHT22;6174;49.058;8.524;2024-01-11T22:56:50;-3.00;99.90
12223;DHT22;6174;49.058;8.524;2024-01-11T22:59:20;-3.00;99.90
12223;DHT22;6174;49.058;8.524;2024-01-11T23:01:47;-3.20;99.90
12223;DHT22;6174;49.058;8.524;2024-01-11T23:04:14;-3.20;99.90
12223;DHT22;6174;49.058;8.524;2024-01-11T23:06:41;-3.40;99.90
12223;DHT22;6174;49.058;8.524;2024-01-11T23:09:09;-3.10;99.90
12223;DHT22;6174;49.058;8.524;2024-01-11T23:11:36;-3.40;99.90
12223;DHT22;6174;49.058;8.524;2024-01-11T23:14:03;-3.30;99.90
12223;DHT22;6174;49.058;8.524;2024-01-11T23:16:30;-3.10;99.90
12223;DHT22;6174;49.058;8.524;2024-01-11T23:18:57;-3.10;99.90
12223;DHT22;6174;49.058;8.524;2024-01-11T23:21:23;-3.00;99.90
12223;DHT22;6174;49.058;8.524;2024-01-11T23:23:50;-3.10;99.90
12223;DHT22;6174;49.058;8.524;2024-01-11T23:26:18;-3.20;99.90
12223;DHT22;6174;49.058;8.524;2024-01-11T23:28:45;-3.40;99.90
